sensor_id;sensor_type;location;lat;lon;timestamp;temperature;humidity
28161;DHT22;15448;51.956;7.670;2022-09-01T00:01:56;22.70;47.70
28161;DHT22;15448;51.956;7.670;2022-09-01T00:04:24;22.70;47.70
28161;DHT22;15448;51.956;7.670;2022-09-01T00:06:53;22.60;47.70
28161;DHT22;15448;51.956;7.670;2022-09-01T00:09:20;22.60;47.60
28161;DHT22;15448;51.956;7.670;2022-09-01T00:11:50;22.60;47.70
28161;DHT22;15448;51.956;7.670;2022-09-01T00:14:23;22.60;47.60
28161;DHT22;15448;51.956;7.670;2022-09-01T00:16:48;22.60;47.60
28161;DHT22;15448;51.956;7.670;2022-09-01T00:19:14;22.60;47.80
28161;DHT22;15448;51.956;7.670;2022-09-01T00:21:42;22.60;47.60
28161;DHT22;15448;51.956;7.670;2022-09-01T00:24:09;22.60;47.70
28161;DHT22;15448;51.956;7.670;2022-09-01T00:26:35;22.60;47.60
28161;DHT22;15448;51.956;7.670;2022-09-01T00:29:02;22.50;47.50
28161;DHT22;15448;51.956;7.670;2022-09-01T00:31:28;22.50;47.50
28161;DHT22;15448;51.956;7.670;2022-09-01T00:33:54;22.50;47.50
28161;DHT22;15448;51.956;7.670;2022-09-01T00:36:20;22.50;47.50
28161;DHT22;15448;51.956;7.670;2022-09-01T00:38:47;22.50;47.60
28161;DHT22;15448;51.956;7.670;2022-09-01T00:41:13;22.50;47.70
28161;DHT22;15448;51.956;7.670;2022-09-01T00:46:12;22.50;47.80
28161;DHT22;15448;51.956;7.670;2022-09-01T00:48:38;22.40;47.80
28161;DHT22;15448;51.956;7.670;2022-09-01T00:51:05;22.40;47.90
28161;DHT22;15448;51.956;7.670;2022-09-01T00:53:32;22.40;48.00
28161;DHT22;15448;51.956;7.670;2022-09-01T00:55:59;22.40;47.90
28161;DHT22;15448;51.956;7.670;2022-09-01T00:58:24;22.40;48.00
28161;DHT22;15448;51.956;7.670;2022-09-01T01:00:52;22.40;48.10
28161;DHT22;15448;51.956;7.670;2022-09-01T01:03:18;22.40;48.10
28161;DHT22;15448;51.956;7.670;2022-09-01T01:05:49;22.40;48.20
28161;DHT22;15448;51.956;7.670;2022-09-01T01:08:29;22.40;48.20
28161;DHT22;15448;51.956;7.670;2022-09-01T01:11:09;22.40;48.10
28161;DHT22;15448;51.956;7.670;2022-09-01T01:16:14;22.30;48.10
28161;DHT22;15448;51.956;7.670;2022-09-01T01:18:40;22.40;48.30
28161;DHT22;15448;51.956;7.670;2022-09-01T01:21:11;22.30;48.10
28161;DHT22;15448;51.956;7.670;2022-09-01T01:26:44;22.30;48.30
28161;DHT22;15448;51.956;7.670;2022-09-01T01:29:10;22.30;48.30
28161;DHT22;15448;51.956;7.670;2022-09-01T01:31:36;22.30;48.40
28161;DHT22;15448;51.956;7.670;2022-09-01T01:34:02;22.30;48.40
28161;DHT22;15448;51.956;7.670;2022-09-01T01:36:33;22.30;48.30
28161;DHT22;15448;51.956;7.670;2022-09-01T01:39:19;22.30;48.30
28161;DHT22;15448;51.956;7.670;2022-09-01T01:41:46;22.20;48.20
28161;DHT22;15448;51.956;7.670;2022-09-01T01:44:14;22.20;48.50
28161;DHT22;15448;51.956;7.670;2022-09-01T01:46:42;22.20;48.50
28161;DHT22;15448;51.956;7.670;2022-09-01T01:49:10;22.20;48.50
28161;DHT22;15448;51.956;7.670;2022-09-01T01:51:38;22.20;48.50
28161;DHT22;15448;51.956;7.670;2022-09-01T01:54:04;22.20;48.30
28161;DHT22;15448;51.956;7.670;2022-09-01T01:56:31;22.20;48.50
28161;DHT22;15448;51.956;7.670;2022-09-01T01:58:58;22.20;48.40
28161;DHT22;15448;51.956;7.670;2022-09-01T02:01:26;22.20;48.30
28161;DHT22;15448;51.956;7.670;2022-09-01T02:03:54;22.20;48.10
28161;DHT22;15448;51.956;7.670;2022-09-01T02:06:21;22.10;48.30
28161;DHT22;15448;51.956;7.670;2022-09-01T02:08:50;22.20;48.20
28161;DHT22;15448;51.956;7.670;2022-09-01T02:11:17;22.10;48.20
28161;DHT22;15448;51.956;7.670;2022-09-01T02:13:43;22.10;48.30
28161;DHT22;15448;51.956;7.670;2022-09-01T02:16:09;22.10;48.00
28161;DHT22;15448;51.956;7.670;2022-09-01T02:18:41;22.00;48.10
28161;DHT22;15448;51.956;7.670;2022-09-01T02:21:09;22.00;48.10
28161;DHT22;15448;51.956;7.670;2022-09-01T02:23:39;22.10;48.10
28161;DHT22;15448;51.956;7.670;2022-09-01T02:26:07;22.00;48.10
28161;DHT22;15448;51.956;7.670;2022-09-01T02:28:37;21.90;47.90
28161;DHT22;15448;51.956;7.670;2022-09-01T02:31:07;22.00;48.10
28161;DHT22;15448;51.956;7.670;2022-09-01T02:33:34;22.00;48.00
28161;DHT22;15448;51.956;7.670;2022-09-01T02:36:05;22.00;48.10
28161;DHT22;15448;51.956;7.670;2022-09-01T02:38:31;22.00;48.10
28161;DHT22;15448;51.956;7.670;2022-09-01T02:40:59;22.00;48.10
28161;DHT22;15448;51.956;7.670;2022-09-01T02:43:27;22.00;48.30
28161;DHT22;15448;51.956;7.670;2022-09-01T02:45:59;21.90;48.30
28161;DHT22;15448;51.956;7.670;2022-09-01T02:48:45;21.90;48.20
28161;DHT22;15448;51.956;7.670;2022-09-01T02:51:17;21.90;48.30
28161;DHT22;15448;51.956;7.670;2022-09-01T02:53:43;21.90;48.50
28161;DHT22;15448;51.956;7.670;2022-09-01T02:56:14;22.00;48.40
28161;DHT22;15448;51.956;7.670;2022-09-01T02:58:43;21.90;48.30
28161;DHT22;15448;51.956;7.670;2022-09-01T03:01:24;21.90;48.50
28161;DHT22;15448;51.956;7.670;2022-09-01T03:03:53;21.80;48.30
28161;DHT22;15448;51.956;7.670;2022-09-01T03:06:19;21.80;48.30
28161;DHT22;15448;51.956;7.670;2022-09-01T03:08:46;21.80;48.30
28161;DHT22;15448;51.956;7.670;2022-09-01T03:11:12;21.80;48.30
28161;DHT22;15448;51.956;7.670;2022-09-01T03:13:39;21.80;48.70
28161;DHT22;15448;51.956;7.670;2022-09-01T03:16:06;21.90;48.70
28161;DHT22;15448;51.956;7.670;2022-09-01T03:18:33;21.80;48.60
28161;DHT22;15448;51.956;7.670;2022-09-01T03:20:59;21.80;48.80
28161;DHT22;15448;51.956;7.670;2022-09-01T03:23:24;21.80;48.50
28161;DHT22;15448;51.956;7.670;2022-09-01T03:25:51;21.80;48.50
28161;DHT22;15448;51.956;7.670;2022-09-01T03:28:17;21.80;48.50
28161;DHT22;15448;51.956;7.670;2022-09-01T03:30:48;21.80;48.40
28161;DHT22;15448;51.956;7.670;2022-09-01T03:33:15;21.80;48.30
28161;DHT22;15448;51.956;7.670;2022-09-01T03:35:42;21.80;48.50
28161;DHT22;15448;51.956;7.670;2022-09-01T03:38:08;21.80;48.60
28161;DHT22;15448;51.956;7.670;2022-09-01T03:40:35;21.70;48.60
28161;DHT22;15448;51.956;7.670;2022-09-01T03:43:02;21.80;48.80
28161;DHT22;15448;51.956;7.670;2022-09-01T03:45:29;21.70;48.70
28161;DHT22;15448;51.956;7.670;2022-09-01T03:47:57;21.80;48.70
28161;DHT22;15448;51.956;7.670;2022-09-01T03:50:23;21.70;48.80
28161;DHT22;15448;51.956;7.670;2022-09-01T03:52:52;21.70;48.80
28161;DHT22;15448;51.956;7.670;2022-09-01T03:55:27;21.70;48.90
28161;DHT22;15448;51.956;7.670;2022-09-01T03:57:56;21.70;48.90
28161;DHT22;15448;51.956;7.670;2022-09-01T04:00:25;21.70;48.90
28161;DHT22;15448;51.956;7.670;2022-09-01T04:02:55;21.70;48.90
28161;DHT22;15448;51.956;7.670;2022-09-01T04:05:25;21.70;48.90
28161;DHT22;15448;51.956;7.670;2022-09-01T04:07:57;21.60;48.90
28161;DHT22;15448;51.956;7.670;2022-09-01T04:10:23;21.60;49.00
28161;DHT22;15448;51.956;7.670;2022-09-01T04:12:49;21.60;48.80
28161;DHT22;15448;51.956;7.670;2022-09-01T04:15:17;21.70;49.00
28161;DHT22;15448;51.956;7.670;2022-09-01T04:17:43;21.60;49.00
28161;DHT22;15448;51.956;7.670;2022-09-01T04:20:27;21.60;49.00
28161;DHT22;15448;51.956;7.670;2022-09-01T04:23:05;21.50;48.90
28161;DHT22;15448;51.956;7.670;2022-09-01T04:25:36;21.60;49.00
28161;DHT22;15448;51.956;7.670;2022-09-01T04:28:03;21.60;49.10
28161;DHT22;15448;51.956;7.670;2022-09-01T04:30:38;21.50;49.00
28161;DHT22;15448;51.956;7.670;2022-09-01T04:33:05;21.60;49.10
28161;DHT22;15448;51.956;7.670;2022-09-01T04:35:31;21.50;49.00
28161;DHT22;15448;51.956;7.670;2022-09-01T04:37:57;21.50;49.00
28161;DHT22;15448;51.956;7.670;2022-09-01T04:40:22;21.50;49.20
28161;DHT22;15448;51.956;7.670;2022-09-01T04:42:48;21.50;49.20
28161;DHT22;15448;51.956;7.670;2022-09-01T04:45:15;21.50;49.20
28161;DHT22;15448;51.956;7.670;2022-09-01T04:47:40;21.50;49.20
28161;DHT22;15448;51.956;7.670;2022-09-01T04:50:08;21.50;49.20
28161;DHT22;15448;51.956;7.670;2022-09-01T04:52:39;21.50;49.20
28161;DHT22;15448;51.956;7.670;2022-09-01T04:55:07;21.50;49.30
28161;DHT22;15448;51.956;7.670;2022-09-01T04:57:33;21.50;49.20
28161;DHT22;15448;51.956;7.670;2022-09-01T04:59:59;21.50;49.30
28161;DHT22;15448;51.956;7.670;2022-09-01T05:02:25;21.50;49.20
28161;DHT22;15448;51.956;7.670;2022-09-01T05:04:53;21.40;49.30
28161;DHT22;15448;51.956;7.670;2022-09-01T05:07:23;21.40;49.30
28161;DHT22;15448;51.956;7.670;2022-09-01T05:09:48;21.40;49.40
28161;DHT22;15448;51.956;7.670;2022-09-01T05:12:15;21.40;50.10
28161;DHT22;15448;51.956;7.670;2022-09-01T05:14:46;21.40;49.70
28161;DHT22;15448;51.956;7.670;2022-09-01T05:17:13;21.50;49.60
28161;DHT22;15448;51.956;7.670;2022-09-01T05:19:40;21.50;49.90
28161;DHT22;15448;51.956;7.670;2022-09-01T05:22:07;21.40;49.70
28161;DHT22;15448;51.956;7.670;2022-09-01T05:24:35;21.40;49.70
28161;DHT22;15448;51.956;7.670;2022-09-01T05:27:03;21.40;49.80
28161;DHT22;15448;51.956;7.670;2022-09-01T05:29:29;21.50;50.00
28161;DHT22;15448;51.956;7.670;2022-09-01T05:31:55;21.50;49.90
28161;DHT22;15448;51.956;7.670;2022-09-01T05:34:22;21.40;49.90
28161;DHT22;15448;51.956;7.670;2022-09-01T05:36:52;21.40;50.00
28161;DHT22;15448;51.956;7.670;2022-09-01T05:39:19;21.40;50.20
28161;DHT22;15448;51.956;7.670;2022-09-01T05:41:45;21.50;50.20
28161;DHT22;15448;51.956;7.670;2022-09-01T05:44:13;21.40;50.30
28161;DHT22;15448;51.956;7.670;2022-09-01T05:46:42;21.40;50.30
28161;DHT22;15448;51.956;7.670;2022-09-01T05:49:10;21.50;50.10
28161;DHT22;15448;51.956;7.670;2022-09-01T05:51:40;21.40;50.20
28161;DHT22;15448;51.956;7.670;2022-09-01T05:54:06;21.50;51.30
28161;DHT22;15448;51.956;7.670;2022-09-01T05:56:34;21.40;49.90
28161;DHT22;15448;51.956;7.670;2022-09-01T05:59:06;21.40;50.00
28161;DHT22;15448;51.956;7.670;2022-09-01T06:01:32;21.30;50.50
28161;DHT22;15448;51.956;7.670;2022-09-01T06:04:00;21.30;49.90
